Grande Italia — IBTF — position and weather

sailwx.info

Track history (hours):
 
Tides and Currents Weather Stations Pressure Air Temp Water Temp Dewpoint Dewpoint Depression Visibility Wind Speed Wind Dir Waves Ship Positions

Grande Italia

Last reported at 2017-Jun-21 05:40 UTC. Time now 2017-Jun-22 22:29 UTC.
Position N 31°51' E 034°38'.

Length 177 m; draft 7.6 m.

Type: Ship (hazmat cat A). MMSI: 247039300.

Date/timePositionNaut miles runAvg speedWind from/ knotsBaromVisibWave heightAir tempDewpointWater temp
2017-Jun-21 05:40N 31°51' E 034°38'13 3.8
2017-Jun-21 02:09N 32°04' E 034°33'214.7
2017-Jun-21 02:00N 32°06' E 034°33'714.5
2017-Jun-21 01:30N 32°13' E 034°35'714.6
2017-Jun-21 01:00N 32°20' E 034°38'714.7
2017-Jun-21 00:30N 32°27' E 034°41'714.5
2017-Jun-21 00:00N 32°34' E 034°43'714.4
2017-Jun-20 23:30N 32°41' E 034°46'714.5
2017-Jun-20 23:00N 32°48' E 034°48'713.5
2017-Jun-20 22:30N 32°54' E 034°51'714.4
2017-Jun-20 22:00N 32°52' E 034°59'2 4.7
2017-Jun-20 21:30N 32°49' E 035°00'0 0.1
2017-Jun-20 21:00N 32°49' E 035°00'0 0.0
2017-Jun-20 20:30N 32°49' E 035°00'0 0.0
2017-Jun-20 20:00N 32°49' E 035°00'0 0.0
2017-Jun-20 19:30N 32°49' E 035°00'0 0.0
2017-Jun-20 19:00N 32°49' E 035°00'0 0.0
2017-Jun-20 18:27N 32°49' E 035°00'0 0.0
2017-Jun-20 18:00N 32°49' E 035°00'0 0.0
2017-Jun-20 17:30N 32°49' E 035°00'0 0.0
2017-Jun-20 17:00N 32°49' E 035°00'0 0.0
2017-Jun-20 16:30N 32°49' E 035°00'0 0.0
2017-Jun-20 16:00N 32°49' E 035°00'0 0.0
2017-Jun-20 15:30N 32°49' E 035°00'0 0.0
2017-Jun-20 15:00N 32°49' E 035°00'0 0.0
2017-Jun-20 14:30N 32°49' E 035°00'0 0.0
2017-Jun-20 13:30N 32°49' E 035°00'0 0.0
2017-Jun-20 13:00N 32°49' E 035°00'0 0.0
2017-Jun-20 12:30N 32°49' E 035°00'0 0.0
2017-Jun-20 12:00N 32°49' E 035°00'0 0.0
2017-Jun-20 11:30N 32°49' E 035°00'0 0.0
2017-Jun-20 11:00N 32°49' E 035°00'0 0.0
2017-Jun-20 10:30N 32°49' E 035°00'0 0.0
2017-Jun-20 10:00N 32°49' E 035°00'0 0.0
2017-Jun-20 09:30N 32°49' E 035°00'0 0.3
2017-Jun-20 09:00N 32°49' E 035°00'1 2.7
2017-Jun-20 08:30N 32°51' E 035°01'1 2.8
2017-Jun-20 08:00N 32°51' E 034°60'1 2.8
2017-Jun-20 07:28N 32°53' E 034°59'0 0.1
2017-Jun-20 06:58N 32°53' E 034°59'0 0.0
2017-Jun-20 06:28N 32°53' E 034°59'0 0.1
2017-Jun-20 05:58N 32°53' E 034°59'0 0.0
2017-Jun-20 05:28N 32°53' E 034°59'0 0.0
2017-Jun-20 04:58N 32°53' E 034°59'0 0.0
2017-Jun-20 04:28N 32°53' E 034°59'0 0.0
2017-Jun-20 03:58N 32°53' E 034°59'0 0.0
2017-Jun-20 03:30N 32°53' E 034°59'0 0.0
2017-Jun-20 03:00N 32°53' E 034°59'0 0.1
2017-Jun-20 02:31N 32°53' E 034°59'611.0
2017-Jun-20 02:00N 32°54' E 034°53'916.4
2017-Jun-20 01:29N 32°55' E 034°43'816.3
2017-Jun-20 00:58N 32°56' E 034°33'1816.6
2017-Jun-19 23:51N 32°60' E 034°11'616.5
2017-Jun-19 23:30N 33°01' E 034°05'815.0
2017-Jun-19 23:00N 33°05' E 033°57'1516.1
2017-Jun-19 22:04N 33°19' E 033°49'316.4
2017-Jun-19 21:53N 33°21' E 033°47'616.7
2017-Jun-19 21:30N 33°27' E 033°44'916.5
2017-Jun-19 20:59N 33°35' E 033°40'816.4
2017-Jun-19 20:30N 33°42' E 033°35'1116.6
2017-Jun-19 19:51N 33°52' E 033°30'5017.1
2017-Jun-19 16:56N 34°37' E 033°05'3 7.7
2017-Jun-19 16:30N 34°39' E 033°02'1 1.4
2017-Jun-19 16:01N 34°39' E 033°01'0 0.0
2017-Jun-19 15:30N 34°39' E 033°01'0 0.0
2017-Jun-19 15:00N 34°39' E 033°01'0 0.0
2017-Jun-19 14:30N 34°39' E 033°01'0 0.0
2017-Jun-19 13:30N 34°39' E 033°01'0 0.2
2017-Jun-19 13:00N 34°39' E 033°01'2 3.3
2017-Jun-19 12:30N 34°39' E 033°03'2 4.3
2017-Jun-19 12:00N 34°37' E 033°04'76 9.9
2017-Jun-19 04:23N 33°29' E 032°24'2815.7
2017-Jun-19 02:38N 33°05' E 032°08'10115.1
2017-Jun-18 19:57N 32°03' E 030°35'2814.8
2017-Jun-18 18:02N 31°45' E 030°09'015.0
2017-Jun-18 18:00N 31°45' E 030°08'1214.8
2017-Jun-18 17:11N 31°37' E 029°57'314.6
2017-Jun-18 17:00N 31°35' E 029°55'714.3
2017-Jun-18 16:31N 31°29' E 029°51'714.2
2017-Jun-18 16:01N 31°23' E 029°47'914.5
2017-Jun-18 15:25N 31°14' E 029°47'147 7.7
2017-Jun-17 20:11N 33°20' E 028°16'316.3
2017-Jun-17 20:00N 33°22' E 028°15'6416.5
2017-Jun-17 16:08N 34°17' E 027°36'216.1
2017-Jun-17 16:00N 34°19' E 027°34'2716.2
2017-Jun-17 14:20N 34°42' E 027°18'2616.4
2017-Jun-17 12:45N 35°05' E 027°01'416.2
2017-Jun-17 12:30N 35°07' E 026°58'20615.1
2017-Jun-16 22:52N 37°31' E 023°56'514.9
2017-Jun-16 22:30N 37°34' E 023°50'713.2
2017-Jun-16 22:00N 37°38' E 023°43'714.5
2017-Jun-16 21:30N 37°45' E 023°39'714.4
2017-Jun-16 21:00N 37°52' E 023°36'5 9.8
2017-Jun-16 20:30N 37°57' E 023°36'1 2.3
2017-Jun-16 20:00N 37°58' E 023°36'0 0.0
2017-Jun-16 19:29N 37°58' E 023°36'0 0.0
2017-Jun-16 19:00N 37°58' E 023°36'0 0.0
2017-Jun-16 18:30N 37°58' E 023°36'0 0.0
2017-Jun-16 18:00N 37°58' E 023°36'0 0.0
2017-Jun-16 17:30N 37°58' E 023°36'0 0.0
2017-Jun-16 17:00N 37°58' E 023°36'0 0.0
2017-Jun-16 16:30N 37°58' E 023°36'0 0.0
2017-Jun-16 16:00N 37°58' E 023°36'0 0.0
2017-Jun-16 15:30N 37°58' E 023°36'0 0.0
2017-Jun-16 15:00N 37°58' E 023°36'0 0.0
2017-Jun-16 14:30N 37°58' E 023°36'0 0.0
2017-Jun-16 13:30N 37°58' E 023°36'0 0.0
2017-Jun-16 13:00N 37°58' E 023°36'0 0.0
2017-Jun-16 12:30N 37°58' E 023°36'0 0.0
2017-Jun-16 12:00N 37°58' E 023°36'0 0.0
2017-Jun-16 11:30N 37°58' E 023°36'0 0.0
2017-Jun-16 11:00N 37°58' E 023°37'0 0.0
2017-Jun-16 10:30N 37°58' E 023°36'0 0.0
2017-Jun-16 10:00N 37°58' E 023°36'0 0.0
2017-Jun-16 09:30N 37°58' E 023°36'0 0.0
2017-Jun-16 09:00N 37°58' E 023°36'0 0.0
2017-Jun-16 08:30N 37°58' E 023°36'0 0.0
2017-Jun-16 08:00N 37°58' E 023°36'0 0.0
2017-Jun-16 07:30N 37°58' E 023°36'0 0.0
2017-Jun-16 07:00N 37°58' E 023°36'0 0.0
2017-Jun-16 06:30N 37°58' E 023°36'0 0.0
2017-Jun-16 06:00N 37°58' E 023°37'0 0.2
2017-Jun-16 05:30N 37°57' E 023°36'3 5.7
2017-Jun-16 05:00N 37°55' E 023°36'2 3.6
2017-Jun-16 04:30N 37°53' E 023°34'1 1.0
2017-Jun-16 04:00N 37°53' E 023°34'0 0.9
2017-Jun-16 03:30N 37°52' E 023°35'1 2.3
2017-Jun-16 03:00N 37°52' E 023°36'4 7.5
2017-Jun-16 02:30N 37°50' E 023°40'714.1
2017-Jun-16 02:00N 37°43' E 023°44'714.1
2017-Jun-16 01:31N 37°37' E 023°47'713.6
2017-Jun-16 01:01N 37°30' E 023°49'714.8
2017-Jun-16 00:31N 37°23' E 023°46'713.8
2017-Jun-16 00:01N 37°16' E 023°48'714.1
2017-Jun-15 23:30N 37°10' E 023°51'814.0
2017-Jun-15 22:57N 37°02' E 023°49'3214.4
2017-Jun-15 20:46N 36°31' E 023°51'414.9
2017-Jun-15 20:31N 36°27' E 023°51'611.2
2017-Jun-15 20:01N 36°22' E 023°47'714.2
2017-Jun-15 19:31N 36°22' E 023°38'714.3
2017-Jun-15 19:01N 36°23' E 023°29'714.3
2017-Jun-15 18:30N 36°23' E 023°20'16914.3
2017-Jun-15 06:37N 37°56' E 020°22'716.6
2017-Jun-15 06:10N 38°02' E 020°17'1716.5
2017-Jun-15 05:09N 38°16' E 020°06'215.6
2017-Jun-15 05:00N 38°18' E 020°04'714.7
2017-Jun-15 04:30N 38°24' E 019°59'814.4
2017-Jun-15 03:55N 38°32' E 019°54'614.2
2017-Jun-15 03:30N 38°37' E 019°50'714.2
2017-Jun-15 03:00N 38°43' E 019°45'714.2
2017-Jun-15 02:30N 38°49' E 019°40'714.6
2017-Jun-15 01:59N 38°55' E 019°35'714.5
2017-Jun-15 01:30N 39°01' E 019°31'1314.5
2017-Jun-15 00:36N 39°12' E 019°22'114.4
2017-Jun-15 00:30N 39°14' E 019°21'1114.3
2017-Jun-14 23:42N 39°23' E 019°14'1714.5
2017-Jun-14 22:33N 39°37' E 019°02'314.4
2017-Jun-14 22:19N 39°40' E 018°59'714.4
2017-Jun-14 21:49N 39°46' E 018°54'614.4
2017-Jun-14 21:25N 39°51' E 018°49'31214.2
2017-Jun-13 23:25N 43°42' E 014°08'614.4
2017-Jun-13 23:00N 43°46' E 014°02'714.3
2017-Jun-13 22:30N 43°50' E 013°54'3714.4
2017-Jun-13 19:57N 44°12' E 013°12'614.5
2017-Jun-13 19:30N 44°18' E 013°10'714.4
2017-Jun-13 19:00N 44°25' E 013°07'714.2
2017-Jun-13 18:30N 44°32' E 013°04'714.5
2017-Jun-13 18:00N 44°39' E 013°01'714.4
2017-Jun-13 17:30N 44°46' E 012°58'714.5
2017-Jun-13 17:00N 44°52' E 012°53'714.7
2017-Jun-13 16:30N 44°59' E 012°48'714.5
2017-Jun-13 16:00N 45°05' E 012°43'714.2
2017-Jun-13 15:30N 45°09' E 012°35'713.5
2017-Jun-13 15:00N 45°15' E 012°29'1110.6
2017-Jun-13 14:01N 45°21' E 012°17'4 8.6
2017-Jun-13 13:31N 45°25' E 012°16'2 4.7
2017-Jun-13 13:01N 45°27' E 012°15'0 0.0
2017-Jun-13 12:28N 45°27' E 012°15'0 0.0
2017-Jun-13 11:58N 45°27' E 012°15'0 0.0
2017-Jun-13 11:28N 45°27' E 012°15'0 0.0
2017-Jun-13 10:58N 45°27' E 012°15'0 0.0
2017-Jun-13 10:25N 45°27' E 012°15'0 0.0
2017-Jun-13 09:55N 45°27' E 012°15'0 0.0
2017-Jun-13 09:28N 45°27' E 012°15'0 0.0
2017-Jun-13 08:58N 45°27' E 012°15'0 0.0
2017-Jun-13 08:28N 45°27' E 012°15'0 0.0
2017-Jun-13 07:58N 45°27' E 012°15'0 0.0
2017-Jun-13 07:19N 45°27' E 012°15'0 0.0
2017-Jun-13 06:58N 45°27' E 012°15'0 0.0
2017-Jun-13 06:28N 45°27' E 012°15'0 0.0
2017-Jun-13 05:55N 45°27' E 012°15'0 0.0
2017-Jun-13 05:30N 45°27' E 012°15'2 3.9
2017-Jun-13 05:00N 45°25' E 012°16'4 8.9
2017-Jun-13 04:30N 45°21' E 012°16'5 9.4
2017-Jun-13 04:00N 45°20' E 012°23'3 6.4
2017-Jun-13 03:30N 45°22' E 012°26'1 2.7
2017-Jun-13 03:00N 45°23' E 012°25'0 0.0
2017-Jun-13 02:27N 45°23' E 012°25'0 0.0
2017-Jun-13 01:51N 45°23' E 012°25'0 0.0
2017-Jun-13 01:27N 45°23' E 012°25'0 0.0
2017-Jun-13 00:54N 45°23' E 012°25'0 0.0
2017-Jun-13 00:30N 45°23' E 012°25'0 0.0
2017-Jun-13 00:00N 45°23' E 012°25'0 0.1
2017-Jun-12 23:24N 45°23' E 012°25'0 0.0
2017-Jun-12 22:27N 45°23' E 012°25'0 0.0
2017-Jun-12 22:00N 45°23' E 012°25'0 0.0
2017-Jun-12 21:18N 45°23' E 012°25'0 0.0
2017-Jun-12 20:57N 45°23' E 012°25'0 0.0
2017-Jun-12 20:30N 45°23' E 012°25'1 2.9
2017-Jun-12 20:00N 45°23' E 012°27'815.2
2017-Jun-12 19:30N 45°20' E 012°37'817.0
2017-Jun-12 19:00N 45°23' E 012°48'917.1
2017-Jun-12 18:30N 45°27' E 012°59'817.0
2017-Jun-12 18:00N 45°31' E 013°10'816.7
2017-Jun-12 17:30N 45°34' E 013°21'816.6
2017-Jun-12 17:00N 45°38' E 013°31'714.5
2017-Jun-12 16:30N 45°34' E 013°40'3 5.6
2017-Jun-12 16:00N 45°34' E 013°44'0 0.0
2017-Jun-12 15:29N 45°34' E 013°44'0 0.0
2017-Jun-12 15:01N 45°34' E 013°44'0 0.0
2017-Jun-12 14:30N 45°34' E 013°44'0 0.0
2017-Jun-12 13:30N 45°34' E 013°44'0 0.0
2017-Jun-12 13:00N 45°34' E 013°44'0 0.0
2017-Jun-12 12:30N 45°34' E 013°44'0 0.0
2017-Jun-12 12:01N 45°34' E 013°44'0 0.0
2017-Jun-12 11:31N 45°34' E 013°44'0 0.0
2017-Jun-12 11:01N 45°34' E 013°44'0 0.0
2017-Jun-12 10:31N 45°34' E 013°44'0 0.0
2017-Jun-12 10:01N 45°34' E 013°44'0 0.0
2017-Jun-12 09:31N 45°34' E 013°44'0 0.0
2017-Jun-12 09:00N 45°34' E 013°44'0 0.0
2017-Jun-12 08:30N 45°34' E 013°44'0 0.0
2017-Jun-12 08:01N 45°34' E 013°44'0 0.0
2017-Jun-12 07:30N 45°34' E 013°44'0 0.0
2017-Jun-12 07:00N 45°34' E 013°44'0 0.0
2017-Jun-12 06:30N 45°34' E 013°44'0 0.0
2017-Jun-12 06:00N 45°34' E 013°44'0 0.0
2017-Jun-12 05:30N 45°34' E 013°44'0 0.0
2017-Jun-12 05:00N 45°34' E 013°44'0 0.0
2017-Jun-12 04:30N 45°34' E 013°44'0 0.0
2017-Jun-12 04:00N 45°34' E 013°44'0 0.0
2017-Jun-12 03:31N 45°34' E 013°44'0 0.0
2017-Jun-12 03:01N 45°34' E 013°44'0 0.0
2017-Jun-12 02:31N 45°34' E 013°44'0 0.0
2017-Jun-12 02:00N 45°34' E 013°44'0 0.0
2017-Jun-12 01:30N 45°34' E 013°44'0 0.0
2017-Jun-12 01:00N 45°34' E 013°44'0 0.0
2017-Jun-12 00:30N 45°34' E 013°44'0 0.0
2017-Jun-12 00:00N 45°34' E 013°44'0 0.0
2017-Jun-11 23:31N 45°34' E 013°44'0 0.0
2017-Jun-11 23:00N 45°34' E 013°44'0 0.0
2017-Jun-11 22:30N 45°34' E 013°44'0 0.0
2017-Jun-11 22:00N 45°34' E 013°44'0 0.0
2017-Jun-11 21:30N 45°34' E 013°44'0 0.0
2017-Jun-11 21:00N 45°34' E 013°44'0 0.0
2017-Jun-11 20:31N 45°34' E 013°44'0 0.0
2017-Jun-11 20:00N 45°34' E 013°44'0 0.0
2017-Jun-11 19:30N 45°34' E 013°44'0 0.0
2017-Jun-11 19:00N 45°34' E 013°44'0 0.0
2017-Jun-11 18:30N 45°34' E 013°44'0 0.0
2017-Jun-11 18:00N 45°34' E 013°44'0 0.0
2017-Jun-11 17:31N 45°34' E 013°44'0 0.0
2017-Jun-11 17:01N 45°34' E 013°44'0 0.0
2017-Jun-11 16:30N 45°34' E 013°44'0 0.0
2017-Jun-11 16:01N 45°34' E 013°44'0 0.6
2017-Jun-11 15:30N 45°33' E 013°44'1 2.8
2017-Jun-11 15:01N 45°34' E 013°42'510.9
2017-Jun-11 14:30N 45°36' E 013°35'1110.7
2017-Jun-11 13:30N 45°47' E 013°33'0 0.9
2017-Jun-11 13:00N 45°47' E 013°33'0 0.0
2017-Jun-11 12:29N 45°47' E 013°33'0 0.0
2017-Jun-11 11:59N 45°47' E 013°33'0 0.0
2017-Jun-11 11:29N 45°47' E 013°33'0 0.0
2017-Jun-11 10:59N 45°47' E 013°33'0 0.0
2017-Jun-11 10:29N 45°47' E 013°33'0 0.0
2017-Jun-11 09:59N 45°47' E 013°33'0 0.0
2017-Jun-11 09:26N 45°47' E 013°33'0 0.0
2017-Jun-11 08:59N 45°47' E 013°33'0 0.0
2017-Jun-11 08:29N 45°47' E 013°33'0 0.0
2017-Jun-11 07:56N 45°47' E 013°33'0 0.0
2017-Jun-11 07:23N 45°47' E 013°33'0 0.0
2017-Jun-11 06:59N 45°47' E 013°33'0 0.0
2017-Jun-11 06:29N 45°47' E 013°33'0 0.0
2017-Jun-11 05:59N 45°47' E 013°33'  
Track history (hours):
 
Tides and Currents Weather Stations Pressure Air Temp Water Temp Dewpoint Dewpoint Depression Visibility Wind Speed Wind Dir Waves Ship Positions

Grande Italia

Last reported at 2017-Jun-21 05:40 UTC. Time now 2017-Jun-22 22:29 UTC.
Position N 31°51' E 034°38'.

Length 177 m; draft 7.6 m.

Type: Ship (hazmat cat A). MMSI: 247039300.

Date/timePositionNaut miles runAvg speedWind from/ knotsBaromVisibWave heightAir tempDewpointWater temp
2017-Jun-21 05:40N 31°51' E 034°38'13 3.8
2017-Jun-21 02:09N 32°04' E 034°33'214.7
2017-Jun-21 02:00N 32°06' E 034°33'714.5
2017-Jun-21 01:30N 32°13' E 034°35'714.6
2017-Jun-21 01:00N 32°20' E 034°38'714.7
2017-Jun-21 00:30N 32°27' E 034°41'714.5
2017-Jun-21 00:00N 32°34' E 034°43'714.4
2017-Jun-20 23:30N 32°41' E 034°46'714.5
2017-Jun-20 23:00N 32°48' E 034°48'713.5
2017-Jun-20 22:30N 32°54' E 034°51'714.4
2017-Jun-20 22:00N 32°52' E 034°59'2 4.7
2017-Jun-20 21:30N 32°49' E 035°00'0 0.1
2017-Jun-20 21:00N 32°49' E 035°00'0 0.0
2017-Jun-20 20:30N 32°49' E 035°00'0 0.0
2017-Jun-20 20:00N 32°49' E 035°00'0 0.0
2017-Jun-20 19:30N 32°49' E 035°00'0 0.0
2017-Jun-20 19:00N 32°49' E 035°00'0 0.0
2017-Jun-20 18:27N 32°49' E 035°00'0 0.0
2017-Jun-20 18:00N 32°49' E 035°00'0 0.0
2017-Jun-20 17:30N 32°49' E 035°00'0 0.0
2017-Jun-20 17:00N 32°49' E 035°00'0 0.0
2017-Jun-20 16:30N 32°49' E 035°00'0 0.0
2017-Jun-20 16:00N 32°49' E 035°00'0 0.0
2017-Jun-20 15:30N 32°49' E 035°00'0 0.0
2017-Jun-20 15:00N 32°49' E 035°00'0 0.0
2017-Jun-20 14:30N 32°49' E 035°00'0 0.0
2017-Jun-20 13:30N 32°49' E 035°00'0 0.0
2017-Jun-20 13:00N 32°49' E 035°00'0 0.0
2017-Jun-20 12:30N 32°49' E 035°00'0 0.0
2017-Jun-20 12:00N 32°49' E 035°00'0 0.0
2017-Jun-20 11:30N 32°49' E 035°00'0 0.0
2017-Jun-20 11:00N 32°49' E 035°00'0 0.0
2017-Jun-20 10:30N 32°49' E 035°00'0 0.0
2017-Jun-20 10:00N 32°49' E 035°00'0 0.0
2017-Jun-20 09:30N 32°49' E 035°00'0 0.3
2017-Jun-20 09:00N 32°49' E 035°00'1 2.7
2017-Jun-20 08:30N 32°51' E 035°01'1 2.8
2017-Jun-20 08:00N 32°51' E 034°60'1 2.8
2017-Jun-20 07:28N 32°53' E 034°59'0 0.1
2017-Jun-20 06:58N 32°53' E 034°59'0 0.0
2017-Jun-20 06:28N 32°53' E 034°59'0 0.1
2017-Jun-20 05:58N 32°53' E 034°59'0 0.0
2017-Jun-20 05:28N 32°53' E 034°59'0 0.0
2017-Jun-20 04:58N 32°53' E 034°59'0 0.0
2017-Jun-20 04:28N 32°53' E 034°59'0 0.0
2017-Jun-20 03:58N 32°53' E 034°59'0 0.0
2017-Jun-20 03:30N 32°53' E 034°59'0 0.0
2017-Jun-20 03:00N 32°53' E 034°59'0 0.1
2017-Jun-20 02:31N 32°53' E 034°59'611.0
2017-Jun-20 02:00N 32°54' E 034°53'916.4
2017-Jun-20 01:29N 32°55' E 034°43'816.3
2017-Jun-20 00:58N 32°56' E 034°33'1816.6
2017-Jun-19 23:51N 32°60' E 034°11'616.5
2017-Jun-19 23:30N 33°01' E 034°05'815.0
2017-Jun-19 23:00N 33°05' E 033°57'1516.1
2017-Jun-19 22:04N 33°19' E 033°49'316.4
2017-Jun-19 21:53N 33°21' E 033°47'616.7
2017-Jun-19 21:30N 33°27' E 033°44'916.5
2017-Jun-19 20:59N 33°35' E 033°40'816.4
2017-Jun-19 20:30N 33°42' E 033°35'1116.6
2017-Jun-19 19:51N 33°52' E 033°30'5017.1
2017-Jun-19 16:56N 34°37' E 033°05'3 7.7
2017-Jun-19 16:30N 34°39' E 033°02'1 1.4
2017-Jun-19 16:01N 34°39' E 033°01'0 0.0
2017-Jun-19 15:30N 34°39' E 033°01'0 0.0
2017-Jun-19 15:00N 34°39' E 033°01'0 0.0
2017-Jun-19 14:30N 34°39' E 033°01'0 0.0
2017-Jun-19 13:30N 34°39' E 033°01'0 0.2
2017-Jun-19 13:00N 34°39' E 033°01'2 3.3
2017-Jun-19 12:30N 34°39' E 033°03'2 4.3
2017-Jun-19 12:00N 34°37' E 033°04'76 9.9
2017-Jun-19 04:23N 33°29' E 032°24'2815.7
2017-Jun-19 02:38N 33°05' E 032°08'10115.1
2017-Jun-18 19:57N 32°03' E 030°35'2814.8
2017-Jun-18 18:02N 31°45' E 030°09'015.0
2017-Jun-18 18:00N 31°45' E 030°08'1214.8
2017-Jun-18 17:11N 31°37' E 029°57'314.6
2017-Jun-18 17:00N 31°35' E 029°55'714.3
2017-Jun-18 16:31N 31°29' E 029°51'714.2
2017-Jun-18 16:01N 31°23' E 029°47'914.5
2017-Jun-18 15:25N 31°14' E 029°47'147 7.7
2017-Jun-17 20:11N 33°20' E 028°16'316.3
2017-Jun-17 20:00N 33°22' E 028°15'6416.5
2017-Jun-17 16:08N 34°17' E 027°36'216.1
2017-Jun-17 16:00N 34°19' E 027°34'2716.2
2017-Jun-17 14:20N 34°42' E 027°18'2616.4
2017-Jun-17 12:45N 35°05' E 027°01'416.2
2017-Jun-17 12:30N 35°07' E 026°58'20615.1
2017-Jun-16 22:52N 37°31' E 023°56'514.9
2017-Jun-16 22:30N 37°34' E 023°50'713.2
2017-Jun-16 22:00N 37°38' E 023°43'714.5
2017-Jun-16 21:30N 37°45' E 023°39'714.4
2017-Jun-16 21:00N 37°52' E 023°36'5 9.8
2017-Jun-16 20:30N 37°57' E 023°36'1 2.3
2017-Jun-16 20:00N 37°58' E 023°36'0 0.0
2017-Jun-16 19:29N 37°58' E 023°36'0 0.0
2017-Jun-16 19:00N 37°58' E 023°36'0 0.0
2017-Jun-16 18:30N 37°58' E 023°36'0 0.0
2017-Jun-16 18:00N 37°58' E 023°36'0 0.0
2017-Jun-16 17:30N 37°58' E 023°36'0 0.0
2017-Jun-16 17:00N 37°58' E 023°36'0 0.0
2017-Jun-16 16:30N 37°58' E 023°36'0 0.0
2017-Jun-16 16:00N 37°58' E 023°36'0 0.0
2017-Jun-16 15:30N 37°58' E 023°36'0 0.0
2017-Jun-16 15:00N 37°58' E 023°36'0 0.0
2017-Jun-16 14:30N 37°58' E 023°36'0 0.0
2017-Jun-16 13:30N 37°58' E 023°36'0 0.0
2017-Jun-16 13:00N 37°58' E 023°36'0 0.0
2017-Jun-16 12:30N 37°58' E 023°36'0 0.0
2017-Jun-16 12:00N 37°58' E 023°36'0 0.0
2017-Jun-16 11:30N 37°58' E 023°36'0 0.0
2017-Jun-16 11:00N 37°58' E 023°37'0 0.0
2017-Jun-16 10:30N 37°58' E 023°36'0 0.0
2017-Jun-16 10:00N 37°58' E 023°36'0 0.0
2017-Jun-16 09:30N 37°58' E 023°36'0 0.0
2017-Jun-16 09:00N 37°58' E 023°36'0 0.0
2017-Jun-16 08:30N 37°58' E 023°36'0 0.0
2017-Jun-16 08:00N 37°58' E 023°36'0 0.0
2017-Jun-16 07:30N 37°58' E 023°36'0 0.0
2017-Jun-16 07:00N 37°58' E 023°36'0 0.0
2017-Jun-16 06:30N 37°58' E 023°36'0 0.0
2017-Jun-16 06:00N 37°58' E 023°37'0 0.2
2017-Jun-16 05:30N 37°57' E 023°36'3 5.7
2017-Jun-16 05:00N 37°55' E 023°36'2 3.6
2017-Jun-16 04:30N 37°53' E 023°34'1 1.0
2017-Jun-16 04:00N 37°53' E 023°34'0 0.9
2017-Jun-16 03:30N 37°52' E 023°35'1 2.3
2017-Jun-16 03:00N 37°52' E 023°36'4 7.5
2017-Jun-16 02:30N 37°50' E 023°40'714.1
2017-Jun-16 02:00N 37°43' E 023°44'714.1
2017-Jun-16 01:31N 37°37' E 023°47'713.6
2017-Jun-16 01:01N 37°30' E 023°49'714.8
2017-Jun-16 00:31N 37°23' E 023°46'713.8
2017-Jun-16 00:01N 37°16' E 023°48'714.1
2017-Jun-15 23:30N 37°10' E 023°51'814.0
2017-Jun-15 22:57N 37°02' E 023°49'3214.4
2017-Jun-15 20:46N 36°31' E 023°51'414.9
2017-Jun-15 20:31N 36°27' E 023°51'611.2
2017-Jun-15 20:01N 36°22' E 023°47'714.2
2017-Jun-15 19:31N 36°22' E 023°38'714.3
2017-Jun-15 19:01N 36°23' E 023°29'714.3
2017-Jun-15 18:30N 36°23' E 023°20'16914.3
2017-Jun-15 06:37N 37°56' E 020°22'716.6
2017-Jun-15 06:10N 38°02' E 020°17'1716.5
2017-Jun-15 05:09N 38°16' E 020°06'215.6
2017-Jun-15 05:00N 38°18' E 020°04'714.7
2017-Jun-15 04:30N 38°24' E 019°59'814.4
2017-Jun-15 03:55N 38°32' E 019°54'614.2
2017-Jun-15 03:30N 38°37' E 019°50'714.2
2017-Jun-15 03:00N 38°43' E 019°45'714.2
2017-Jun-15 02:30N 38°49' E 019°40'714.6
2017-Jun-15 01:59N 38°55' E 019°35'714.5
2017-Jun-15 01:30N 39°01' E 019°31'1314.5
2017-Jun-15 00:36N 39°12' E 019°22'114.4
2017-Jun-15 00:30N 39°14' E 019°21'1114.3
2017-Jun-14 23:42N 39°23' E 019°14'1714.5
2017-Jun-14 22:33N 39°37' E 019°02'314.4
2017-Jun-14 22:19N 39°40' E 018°59'714.4
2017-Jun-14 21:49N 39°46' E 018°54'614.4
2017-Jun-14 21:25N 39°51' E 018°49'31214.2
2017-Jun-13 23:25N 43°42' E 014°08'614.4
2017-Jun-13 23:00N 43°46' E 014°02'714.3
2017-Jun-13 22:30N 43°50' E 013°54'3714.4
2017-Jun-13 19:57N 44°12' E 013°12'614.5
2017-Jun-13 19:30N 44°18' E 013°10'714.4
2017-Jun-13 19:00N 44°25' E 013°07'714.2
2017-Jun-13 18:30N 44°32' E 013°04'714.5
2017-Jun-13 18:00N 44°39' E 013°01'714.4
2017-Jun-13 17:30N 44°46' E 012°58'714.5
2017-Jun-13 17:00N 44°52' E 012°53'714.7
2017-Jun-13 16:30N 44°59' E 012°48'714.5
2017-Jun-13 16:00N 45°05' E 012°43'714.2
2017-Jun-13 15:30N 45°09' E 012°35'713.5
2017-Jun-13 15:00N 45°15' E 012°29'1110.6
2017-Jun-13 14:01N 45°21' E 012°17'4 8.6
2017-Jun-13 13:31N 45°25' E 012°16'2 4.7
2017-Jun-13 13:01N 45°27' E 012°15'0 0.0
2017-Jun-13 12:28N 45°27' E 012°15'0 0.0
2017-Jun-13 11:58N 45°27' E 012°15'0 0.0
2017-Jun-13 11:28N 45°27' E 012°15'0 0.0
2017-Jun-13 10:58N 45°27' E 012°15'0 0.0
2017-Jun-13 10:25N 45°27' E 012°15'0 0.0
2017-Jun-13 09:55N 45°27' E 012°15'0 0.0
2017-Jun-13 09:28N 45°27' E 012°15'0 0.0
2017-Jun-13 08:58N 45°27' E 012°15'0 0.0
2017-Jun-13 08:28N 45°27' E 012°15'0 0.0
2017-Jun-13 07:58N 45°27' E 012°15'0 0.0
2017-Jun-13 07:19N 45°27' E 012°15'0 0.0
2017-Jun-13 06:58N 45°27' E 012°15'0 0.0
2017-Jun-13 06:28N 45°27' E 012°15'0 0.0
2017-Jun-13 05:55N 45°27' E 012°15'0 0.0
2017-Jun-13 05:30N 45°27' E 012°15'2 3.9
2017-Jun-13 05:00N 45°25' E 012°16'4 8.9
2017-Jun-13 04:30N 45°21' E 012°16'5 9.4
2017-Jun-13 04:00N 45°20' E 012°23'3 6.4
2017-Jun-13 03:30N 45°22' E 012°26'1 2.7
2017-Jun-13 03:00N 45°23' E 012°25'0 0.0
2017-Jun-13 02:27N 45°23' E 012°25'0 0.0
2017-Jun-13 01:51N 45°23' E 012°25'0 0.0
2017-Jun-13 01:27N 45°23' E 012°25'0 0.0
2017-Jun-13 00:54N 45°23' E 012°25'0 0.0
2017-Jun-13 00:30N 45°23' E 012°25'0 0.0
2017-Jun-13 00:00N 45°23' E 012°25'0 0.1
2017-Jun-12 23:24N 45°23' E 012°25'0 0.0
2017-Jun-12 22:27N 45°23' E 012°25'0 0.0
2017-Jun-12 22:00N 45°23' E 012°25'0 0.0
2017-Jun-12 21:18N 45°23' E 012°25'0 0.0
2017-Jun-12 20:57N 45°23' E 012°25'0 0.0
2017-Jun-12 20:30N 45°23' E 012°25'1 2.9
2017-Jun-12 20:00N 45°23' E 012°27'815.2
2017-Jun-12 19:30N 45°20' E 012°37'817.0
2017-Jun-12 19:00N 45°23' E 012°48'917.1
2017-Jun-12 18:30N 45°27' E 012°59'817.0
2017-Jun-12 18:00N 45°31' E 013°10'816.7
2017-Jun-12 17:30N 45°34' E 013°21'816.6
2017-Jun-12 17:00N 45°38' E 013°31'714.5
2017-Jun-12 16:30N 45°34' E 013°40'3 5.6
2017-Jun-12 16:00N 45°34' E 013°44'0 0.0
2017-Jun-12 15:29N 45°34' E 013°44'0 0.0
2017-Jun-12 15:01N 45°34' E 013°44'0 0.0
2017-Jun-12 14:30N 45°34' E 013°44'0 0.0
2017-Jun-12 13:30N 45°34' E 013°44'0 0.0
2017-Jun-12 13:00N 45°34' E 013°44'0 0.0
2017-Jun-12 12:30N 45°34' E 013°44'0 0.0
2017-Jun-12 12:01N 45°34' E 013°44'0 0.0
2017-Jun-12 11:31N 45°34' E 013°44'0 0.0
2017-Jun-12 11:01N 45°34' E 013°44'0 0.0
2017-Jun-12 10:31N 45°34' E 013°44'0 0.0
2017-Jun-12 10:01N 45°34' E 013°44'0 0.0
2017-Jun-12 09:31N 45°34' E 013°44'0 0.0
2017-Jun-12 09:00N 45°34' E 013°44'0 0.0
2017-Jun-12 08:30N 45°34' E 013°44'0 0.0
2017-Jun-12 08:01N 45°34' E 013°44'0 0.0
2017-Jun-12 07:30N 45°34' E 013°44'0 0.0
2017-Jun-12 07:00N 45°34' E 013°44'0 0.0
2017-Jun-12 06:30N 45°34' E 013°44'0 0.0
2017-Jun-12 06:00N 45°34' E 013°44'0 0.0
2017-Jun-12 05:30N 45°34' E 013°44'0 0.0
2017-Jun-12 05:00N 45°34' E 013°44'0 0.0
2017-Jun-12 04:30N 45°34' E 013°44'0 0.0
2017-Jun-12 04:00N 45°34' E 013°44'0 0.0
2017-Jun-12 03:31N 45°34' E 013°44'0 0.0
2017-Jun-12 03:01N 45°34' E 013°44'0 0.0
2017-Jun-12 02:31N 45°34' E 013°44'0 0.0
2017-Jun-12 02:00N 45°34' E 013°44'0 0.0
2017-Jun-12 01:30N 45°34' E 013°44'0 0.0
2017-Jun-12 01:00N 45°34' E 013°44'0 0.0
2017-Jun-12 00:30N 45°34' E 013°44'0 0.0
2017-Jun-12 00:00N 45°34' E 013°44'0 0.0
2017-Jun-11 23:31N 45°34' E 013°44'0 0.0
2017-Jun-11 23:00N 45°34' E 013°44'0 0.0
2017-Jun-11 22:30N 45°34' E 013°44'0 0.0
2017-Jun-11 22:00N 45°34' E 013°44'0 0.0
2017-Jun-11 21:30N 45°34' E 013°44'0 0.0
2017-Jun-11 21:00N 45°34' E 013°44'0 0.0
2017-Jun-11 20:31N 45°34' E 013°44'0 0.0
2017-Jun-11 20:00N 45°34' E 013°44'0 0.0
2017-Jun-11 19:30N 45°34' E 013°44'0 0.0
2017-Jun-11 19:00N 45°34' E 013°44'0 0.0
2017-Jun-11 18:30N 45°34' E 013°44'0 0.0
2017-Jun-11 18:00N 45°34' E 013°44'0 0.0
2017-Jun-11 17:31N 45°34' E 013°44'0 0.0
2017-Jun-11 17:01N 45°34' E 013°44'0 0.0
2017-Jun-11 16:30N 45°34' E 013°44'0 0.0
2017-Jun-11 16:01N 45°34' E 013°44'0 0.6
2017-Jun-11 15:30N 45°33' E 013°44'1 2.8
2017-Jun-11 15:01N 45°34' E 013°42'510.9
2017-Jun-11 14:30N 45°36' E 013°35'1110.7
2017-Jun-11 13:30N 45°47' E 013°33'0 0.9
2017-Jun-11 13:00N 45°47' E 013°33'0 0.0
2017-Jun-11 12:29N 45°47' E 013°33'0 0.0
2017-Jun-11 11:59N 45°47' E 013°33'0 0.0
2017-Jun-11 11:29N 45°47' E 013°33'0 0.0
2017-Jun-11 10:59N 45°47' E 013°33'0 0.0
2017-Jun-11 10:29N 45°47' E 013°33'0 0.0
2017-Jun-11 09:59N 45°47' E 013°33'0 0.0
2017-Jun-11 09:26N 45°47' E 013°33'0 0.0
2017-Jun-11 08:59N 45°47' E 013°33'0 0.0
2017-Jun-11 08:29N 45°47' E 013°33'0 0.0
2017-Jun-11 07:56N 45°47' E 013°33'0 0.0
2017-Jun-11 07:23N 45°47' E 013°33'0 0.0
2017-Jun-11 06:59N 45°47' E 013°33'0 0.0
2017-Jun-11 06:29N 45°47' E 013°33'0 0.0
2017-Jun-11 05:59N 45°47' E 013°33'  

Dump ship's entire track history